sensor_id;sensor_type;location;lat;lon;timestamp;temperature;humidity
21169;DHT22;10742;51.816;8.662;2023-05-10T00:00:47;20.50;91.50
21169;DHT22;10742;51.816;8.662;2023-05-10T00:03:49;20.50;91.60
21169;DHT22;10742;51.816;8.662;2023-05-10T00:06:51;20.50;91.70
21169;DHT22;10742;51.816;8.662;2023-05-10T00:09:54;20.50;91.60
21169;DHT22;10742;51.816;8.662;2023-05-10T00:12:56;20.50;91.60
21169;DHT22;10742;51.816;8.662;2023-05-10T00:15:59;20.50;91.60
21169;DHT22;10742;51.816;8.662;2023-05-10T00:19:01;20.50;91.70
21169;DHT22;10742;51.816;8.662;2023-05-10T00:22:03;20.50;91.80
21169;DHT22;10742;51.816;8.662;2023-05-10T00:25:06;20.40;91.90
21169;DHT22;10742;51.816;8.662;2023-05-10T00:28:09;20.40;92.10
21169;DHT22;10742;51.816;8.662;2023-05-10T00:31:12;20.40;91.90
21169;DHT22;10742;51.816;8.662;2023-05-10T00:34:14;20.40;91.90
21169;DHT22;10742;51.816;8.662;2023-05-10T00:37:17;20.30;91.90
21169;DHT22;10742;51.816;8.662;2023-05-10T00:40:19;20.40;92.00
21169;DHT22;10742;51.816;8.662;2023-05-10T00:43:26;20.30;92.10
21169;DHT22;10742;51.816;8.662;2023-05-10T00:46:29;20.30;92.20
21169;DHT22;10742;51.816;8.662;2023-05-10T00:49:32;20.20;92.20
21169;DHT22;10742;51.816;8.662;2023-05-10T00:52:34;20.20;92.40
21169;DHT22;10742;51.816;8.662;2023-05-10T00:55:36;20.20;92.40
21169;DHT22;10742;51.816;8.662;2023-05-10T00:58:39;20.20;92.40
21169;DHT22;10742;51.816;8.662;2023-05-10T01:01:43;20.20;92.40
21169;DHT22;10742;51.816;8.662;2023-05-10T01:04:46;20.10;92.50
21169;DHT22;10742;51.816;8.662;2023-05-10T01:07:48;20.10;92.60
21169;DHT22;10742;51.816;8.662;2023-05-10T01:10:50;20.10;92.60
21169;DHT22;10742;51.816;8.662;2023-05-10T01:13:56;20.10;92.70
21169;DHT22;10742;51.816;8.662;2023-05-10T01:17:00;20.10;92.80
21169;DHT22;10742;51.816;8.662;2023-05-10T01:20:02;20.10;92.80
21169;DHT22;10742;51.816;8.662;2023-05-10T01:29:53;20.00;92.80
21169;DHT22;10742;51.816;8.662;2023-05-10T01:36:43;19.90;93.40
21169;DHT22;10742;51.816;8.662;2023-05-10T01:39:55;19.90;93.20
21169;DHT22;10742;51.816;8.662;2023-05-10T01:43:02;19.90;93.30
21169;DHT22;10742;51.816;8.662;2023-05-10T01:46:10;19.80;93.20
21169;DHT22;10742;51.816;8.662;2023-05-10T01:49:28;19.80;93.50
21169;DHT22;10742;51.816;8.662;2023-05-10T01:52:36;19.70;93.70
21169;DHT22;10742;51.816;8.662;2023-05-10T01:55:44;19.70;93.50
21169;DHT22;10742;51.816;8.662;2023-05-10T01:58:49;19.80;93.80
21169;DHT22;10742;51.816;8.662;2023-05-10T02:01:54;19.80;93.60
21169;DHT22;10742;51.816;8.662;2023-05-10T02:04:58;19.80;93.60
21169;DHT22;10742;51.816;8.662;2023-05-10T02:08:02;19.80;93.60
21169;DHT22;10742;51.816;8.662;2023-05-10T02:11:07;19.70;93.60
21169;DHT22;10742;51.816;8.662;2023-05-10T02:14:13;19.80;93.60
21169;DHT22;10742;51.816;8.662;2023-05-10T02:17:16;19.70;93.50
21169;DHT22;10742;51.816;8.662;2023-05-10T02:20:20;19.80;93.50
21169;DHT22;10742;51.816;8.662;2023-05-10T02:23:25;19.80;93.60
21169;DHT22;10742;51.816;8.662;2023-05-10T02:26:27;19.70;93.70
21169;DHT22;10742;51.816;8.662;2023-05-10T02:29:32;19.70;93.50
21169;DHT22;10742;51.816;8.662;2023-05-10T02:32:35;19.70;93.50
21169;DHT22;10742;51.816;8.662;2023-05-10T02:35:38;19.60;93.50
21169;DHT22;10742;51.816;8.662;2023-05-10T02:38:44;19.60;93.50
21169;DHT22;10742;51.816;8.662;2023-05-10T02:41:49;19.50;93.50
21169;DHT22;10742;51.816;8.662;2023-05-10T02:44:54;19.50;93.60
21169;DHT22;10742;51.816;8.662;2023-05-10T02:47:59;19.50;94.00
21169;DHT22;10742;51.816;8.662;2023-05-10T02:51:05;19.50;93.50
21169;DHT22;10742;51.816;8.662;2023-05-10T02:54:15;19.40;93.60
21169;DHT22;10742;51.816;8.662;2023-05-10T02:57:28;19.50;93.70
21169;DHT22;10742;51.816;8.662;2023-05-10T03:00:32;19.40;93.60
21169;DHT22;10742;51.816;8.662;2023-05-10T03:03:34;19.40;93.50
21169;DHT22;10742;51.816;8.662;2023-05-10T03:06:37;19.40;93.50
21169;DHT22;10742;51.816;8.662;2023-05-10T03:09:40;19.40;93.50
21169;DHT22;10742;51.816;8.662;2023-05-10T03:13:07;19.40;93.60
21169;DHT22;10742;51.816;8.662;2023-05-10T03:16:15;19.30;93.90
21169;DHT22;10742;51.816;8.662;2023-05-10T03:19:34;19.40;93.70
21169;DHT22;10742;51.816;8.662;2023-05-10T03:22:44;19.30;93.90
21169;DHT22;10742;51.816;8.662;2023-05-10T03:25:48;19.30;93.70
21169;DHT22;10742;51.816;8.662;2023-05-10T03:28:52;19.30;93.70
21169;DHT22;10742;51.816;8.662;2023-05-10T03:31:55;19.20;93.60
21169;DHT22;10742;51.816;8.662;2023-05-10T03:34:57;19.20;93.60
21169;DHT22;10742;51.816;8.662;2023-05-10T03:38:01;19.20;93.60
21169;DHT22;10742;51.816;8.662;2023-05-10T03:41:03;19.20;93.70
21169;DHT22;10742;51.816;8.662;2023-05-10T03:44:07;19.10;93.70
21169;DHT22;10742;51.816;8.662;2023-05-10T03:47:09;19.20;93.70
21169;DHT22;10742;51.816;8.662;2023-05-10T03:50:11;19.10;93.80
21169;DHT22;10742;51.816;8.662;2023-05-10T03:53:14;19.20;93.80
21169;DHT22;10742;51.816;8.662;2023-05-10T03:56:16;19.10;93.80
21169;DHT22;10742;51.816;8.662;2023-05-10T03:59:20;19.10;93.80
21169;DHT22;10742;51.816;8.662;2023-05-10T04:02:22;19.10;93.80
21169;DHT22;10742;51.816;8.662;2023-05-10T04:05:24;19.10;93.80
21169;DHT22;10742;51.816;8.662;2023-05-10T04:08:27;19.00;93.80
21169;DHT22;10742;51.816;8.662;2023-05-10T04:11:31;19.00;93.90
21169;DHT22;10742;51.816;8.662;2023-05-10T04:14:33;19.00;93.80
21169;DHT22;10742;51.816;8.662;2023-05-10T04:17:35;19.00;93.90
21169;DHT22;10742;51.816;8.662;2023-05-10T04:20:38;18.90;93.80
21169;DHT22;10742;51.816;8.662;2023-05-10T04:23:40;18.90;93.90
21169;DHT22;10742;51.816;8.662;2023-05-10T04:26:43;18.90;94.00
21169;DHT22;10742;51.816;8.662;2023-05-10T04:29:45;18.80;94.00
21169;DHT22;10742;51.816;8.662;2023-05-10T04:32:47;18.80;94.10
21169;DHT22;10742;51.816;8.662;2023-05-10T04:35:49;18.80;94.10
21169;DHT22;10742;51.816;8.662;2023-05-10T04:38:52;18.70;94.00
21169;DHT22;10742;51.816;8.662;2023-05-10T04:41:54;18.70;94.00
21169;DHT22;10742;51.816;8.662;2023-05-10T04:44:57;18.70;94.00
21169;DHT22;10742;51.816;8.662;2023-05-10T04:47:59;18.70;94.00
21169;DHT22;10742;51.816;8.662;2023-05-10T04:51:01;18.60;94.00
21169;DHT22;10742;51.816;8.662;2023-05-10T04:54:05;18.60;94.00
21169;DHT22;10742;51.816;8.662;2023-05-10T04:57:08;18.60;94.00
21169;DHT22;10742;51.816;8.662;2023-05-10T05:00:11;18.50;94.00
21169;DHT22;10742;51.816;8.662;2023-05-10T05:03:13;18.50;94.10
21169;DHT22;10742;51.816;8.662;2023-05-10T05:06:15;18.50;94.20
21169;DHT22;10742;51.816;8.662;2023-05-10T05:09:17;18.50;94.20
21169;DHT22;10742;51.816;8.662;2023-05-10T05:12:20;18.50;94.20
21169;DHT22;10742;51.816;8.662;2023-05-10T05:15:22;18.50;94.20
21169;DHT22;10742;51.816;8.662;2023-05-10T05:18:24;18.50;94.30
21169;DHT22;10742;51.816;8.662;2023-05-10T05:21:27;18.50;94.40
21169;DHT22;10742;51.816;8.662;2023-05-10T05:24:29;18.40;94.40
21169;DHT22;10742;51.816;8.662;2023-05-10T05:27:36;18.50;94.40
21169;DHT22;10742;51.816;8.662;2023-05-10T05:30:39;18.50;94.40
21169;DHT22;10742;51.816;8.662;2023-05-10T05:33:41;18.40;94.40
21169;DHT22;10742;51.816;8.662;2023-05-10T05:36:43;18.40;94.40
21169;DHT22;10742;51.816;8.662;2023-05-10T05:39:46;18.50;94.40
21169;DHT22;10742;51.816;8.662;2023-05-10T05:42:48;18.50;94.40
21169;DHT22;10742;51.816;8.662;2023-05-10T05:45:52;18.40;94.50
21169;DHT22;10742;51.816;8.662;2023-05-10T05:48:55;18.40;94.50
21169;DHT22;10742;51.816;8.662;2023-05-10T05:52:02;18.40;94.50
21169;DHT22;10742;51.816;8.662;2023-05-10T05:55:04;18.40;94.60
21169;DHT22;10742;51.816;8.662;2023-05-10T05:58:07;18.50;94.60
21169;DHT22;10742;51.816;8.662;2023-05-10T06:01:09;18.50;94.50
21169;DHT22;10742;51.816;8.662;2023-05-10T06:04:11;18.40;94.60
21169;DHT22;10742;51.816;8.662;2023-05-10T06:07:14;18.50;94.60
21169;DHT22;10742;51.816;8.662;2023-05-10T06:10:16;18.50;94.50
21169;DHT22;10742;51.816;8.662;2023-05-10T06:13:18;18.50;94.50
21169;DHT22;10742;51.816;8.662;2023-05-10T06:16:22;18.50;94.40
21169;DHT22;10742;51.816;8.662;2023-05-10T06:19:24;18.50;94.40
21169;DHT22;10742;51.816;8.662;2023-05-10T06:22:26;18.50;94.30
21169;DHT22;10742;51.816;8.662;2023-05-10T06:25:29;18.50;94.30
21169;DHT22;10742;51.816;8.662;2023-05-10T06:28:31;18.50;94.30
21169;DHT22;10742;51.816;8.662;2023-05-10T06:31:34;18.50;94.30
21169;DHT22;10742;51.816;8.662;2023-05-10T06:34:36;18.50;94.40
21169;DHT22;10742;51.816;8.662;2023-05-10T06:37:39;18.50;94.50
21169;DHT22;10742;51.816;8.662;2023-05-10T06:40:42;18.50;94.50
21169;DHT22;10742;51.816;8.662;2023-05-10T06:43:44;18.60;94.60
21169;DHT22;10742;51.816;8.662;2023-05-10T06:46:47;18.60;94.60
21169;DHT22;10742;51.816;8.662;2023-05-10T06:49:49;18.60;94.60
21169;DHT22;10742;51.816;8.662;2023-05-10T06:52:51;18.60;94.40
21169;DHT22;10742;51.816;8.662;2023-05-10T06:55:54;18.70;94.40
21169;DHT22;10742;51.816;8.662;2023-05-10T06:58:56;18.60;94.40
21169;DHT22;10742;51.816;8.662;2023-05-10T07:01:59;18.70;94.50
21169;DHT22;10742;51.816;8.662;2023-05-10T07:05:01;18.70;94.50
21169;DHT22;10742;51.816;8.662;2023-05-10T07:08:04;18.70;94.50
21169;DHT22;10742;51.816;8.662;2023-05-10T07:11:06;18.70;94.40
21169;DHT22;10742;51.816;8.662;2023-05-10T07:14:28;18.80;94.50
21169;DHT22;10742;51.816;8.662;2023-05-10T07:17:49;18.80;94.50
21169;DHT22;10742;51.816;8.662;2023-05-10T07:20:51;18.80;94.60
21169;DHT22;10742;51.816;8.662;2023-05-10T07:23:54;18.90;94.60
21169;DHT22;10742;51.816;8.662;2023-05-10T07:26:56;18.90;94.70
21169;DHT22;10742;51.816;8.662;2023-05-10T07:29:59;19.00;94.70
21169;DHT22;10742;51.816;8.662;2023-05-10T07:33:02;19.10;94.60
21169;DHT22;10742;51.816;8.662;2023-05-10T07:36:04;19.10;94.40
21169;DHT22;10742;51.816;8.662;2023-05-10T07:39:07;19.20;94.40
21169;DHT22;10742;51.816;8.662;2023-05-10T07:42:09;19.20;94.40
21169;DHT22;10742;51.816;8.662;2023-05-10T07:45:11;19.20;94.50
21169;DHT22;10742;51.816;8.662;2023-05-10T07:48:14;19.30;94.50
21169;DHT22;10742;51.816;8.662;2023-05-10T07:51:16;19.40;94.40
21169;DHT22;10742;51.816;8.662;2023-05-10T07:54:19;19.40;94.40
21169;DHT22;10742;51.816;8.662;2023-05-10T07:57:21;19.50;94.40
21169;DHT22;10742;51.816;8.662;2023-05-10T08:00:23;19.60;94.40
21169;DHT22;10742;51.816;8.662;2023-05-10T08:03:25;19.60;94.40
21169;DHT22;10742;51.816;8.662;2023-05-10T08:06:28;19.70;94.40
21169;DHT22;10742;51.816;8.662;2023-05-10T08:09:31;19.70;94.50
21169;DHT22;10742;51.816;8.662;2023-05-10T08:12:34;19.80;94.50
21169;DHT22;10742;51.816;8.662;2023-05-10T08:15:36;19.90;94.30
21169;DHT22;10742;51.816;8.662;2023-05-10T08:18:38;20.10;94.20
21169;DHT22;10742;51.816;8.662;2023-05-10T08:21:41;20.10;94.00
21169;DHT22;10742;51.816;8.662;2023-05-10T08:24:44;20.20;93.80
21169;DHT22;10742;51.816;8.662;2023-05-10T08:27:46;20.20;93.60
21169;DHT22;10742;51.816;8.662;2023-05-10T08:30:50;20.20;93.50
21169;DHT22;10742;51.816;8.662;2023-05-10T08:33:52;20.30;93.60
21169;DHT22;10742;51.816;8.662;2023-05-10T08:36:54;20.30;93.60
21169;DHT22;10742;51.816;8.662;2023-05-10T08:39:57;20.30;93.60
21169;DHT22;10742;51.816;8.662;2023-05-10T08:43:05;20.40;93.60
21169;DHT22;10742;51.816;8.662;2023-05-10T08:46:09;20.40;93.50
21169;DHT22;10742;51.816;8.662;2023-05-10T08:49:17;20.50;93.50
21169;DHT22;10742;51.816;8.662;2023-05-10T08:52:22;20.50;93.40
21169;DHT22;10742;51.816;8.662;2023-05-10T08:55:26;20.50;93.40
21169;DHT22;10742;51.816;8.662;2023-05-10T08:58:29;20.50;93.50
21169;DHT22;10742;51.816;8.662;2023-05-10T09:01:31;20.50;93.60
21169;DHT22;10742;51.816;8.662;2023-05-10T09:04:35;20.50;93.10
21169;DHT22;10742;51.816;8.662;2023-05-10T09:07:37;20.50;93.10
21169;DHT22;10742;51.816;8.662;2023-05-10T09:10:39;20.50;93.20
21169;DHT22;10742;51.816;8.662;2023-05-10T09:13:43;20.50;93.50
21169;DHT22;10742;51.816;8.662;2023-05-10T09:16:47;20.50;93.70
21169;DHT22;10742;51.816;8.662;2023-05-10T09:19:49;20.50;93.90
21169;DHT22;10742;51.816;8.662;2023-05-10T09:22:52;20.60;94.00
21169;DHT22;10742;51.816;8.662;2023-05-10T09:26:07;20.70;94.00
21169;DHT22;10742;51.816;8.662;2023-05-10T09:29:09;20.70;93.60
21169;DHT22;10742;51.816;8.662;2023-05-10T09:32:12;20.80;93.70
21169;DHT22;10742;51.816;8.662;2023-05-10T09:35:17;20.80;93.70
21169;DHT22;10742;51.816;8.662;2023-05-10T09:38:20;20.90;93.60
21169;DHT22;10742;51.816;8.662;2023-05-10T09:41:23;21.00;93.70
21169;DHT22;10742;51.816;8.662;2023-05-10T09:44:26;21.10;93.90
21169;DHT22;10742;51.816;8.662;2023-05-10T09:47:28;21.30;93.80
21169;DHT22;10742;51.816;8.662;2023-05-10T09:50:30;21.40;93.70
21169;DHT22;10742;51.816;8.662;2023-05-10T09:53:33;21.50;93.50
21169;DHT22;10742;51.816;8.662;2023-05-10T09:56:36;21.70;93.30
21169;DHT22;10742;51.816;8.662;2023-05-10T09:59:43;21.80;93.10
21169;DHT22;10742;51.816;8.662;2023-05-10T10:02:47;22.00;92.70
21169;DHT22;10742;51.816;8.662;2023-05-10T10:05:49;22.20;92.60
21169;DHT22;10742;51.816;8.662;2023-05-10T10:08:53;22.30;92.60
21169;DHT22;10742;51.816;8.662;2023-05-10T10:11:57;22.50;92.20
21169;DHT22;10742;51.816;8.662;2023-05-10T10:15:01;22.60;91.80
21169;DHT22;10742;51.816;8.662;2023-05-10T10:18:03;22.80;91.70
21169;DHT22;10742;51.816;8.662;2023-05-10T10:21:07;23.00;91.50
21169;DHT22;10742;51.816;8.662;2023-05-10T10:24:10;23.10;91.40
21169;DHT22;10742;51.816;8.662;2023-05-10T10:27:24;23.30;91.10
21169;DHT22;10742;51.816;8.662;2023-05-10T10:30:42;23.50;90.70
21169;DHT22;10742;51.816;8.662;2023-05-10T10:36:49;24.00;90.10
21169;DHT22;10742;51.816;8.662;2023-05-10T10:39:53;24.20;90.50
21169;DHT22;10742;51.816;8.662;2023-05-10T10:42:58;24.30;89.90
21169;DHT22;10742;51.816;8.662;2023-05-10T10:46:17;24.50;89.30
21169;DHT22;10742;51.816;8.662;2023-05-10T10:49:19;24.80;86.70
21169;DHT22;10742;51.816;8.662;2023-05-10T10:52:26;25.00;86.60
21169;DHT22;10742;51.816;8.662;2023-05-10T10:55:31;25.10;85.20
21169;DHT22;10742;51.816;8.662;2023-05-10T10:58:35;25.20;84.50
21169;DHT22;10742;51.816;8.662;2023-05-10T11:01:41;25.30;83.80
21169;DHT22;10742;51.816;8.662;2023-05-10T11:04:46;25.30;82.60
21169;DHT22;10742;51.816;8.662;2023-05-10T11:07:56;25.40;83.30
21169;DHT22;10742;51.816;8.662;2023-05-10T11:14:06;25.60;82.90
21169;DHT22;10742;51.816;8.662;2023-05-10T11:17:26;25.60;81.00
21169;DHT22;10742;51.816;8.662;2023-05-10T11:20:38;25.70;80.00
21169;DHT22;10742;51.816;8.662;2023-05-10T11:23:48;25.70;80.00
21169;DHT22;10742;51.816;8.662;2023-05-10T11:26:51;25.80;80.20
21169;DHT22;10742;51.816;8.662;2023-05-10T11:29:53;25.80;80.70
21169;DHT22;10742;51.816;8.662;2023-05-10T11:32:56;25.80;80.00
21169;DHT22;10742;51.816;8.662;2023-05-10T11:35:58;25.90;80.20
21169;DHT22;10742;51.816;8.662;2023-05-10T11:39:00;26.00;79.90
21169;DHT22;10742;51.816;8.662;2023-05-10T11:42:03;26.00;79.70
21169;DHT22;10742;51.816;8.662;2023-05-10T11:45:06;26.10;80.00
21169;DHT22;10742;51.816;8.662;2023-05-10T11:48:09;26.10;79.50
21169;DHT22;10742;51.816;8.662;2023-05-10T11:51:11;26.20;79.90
21169;DHT22;10742;51.816;8.662;2023-05-10T11:54:13;26.30;79.60
21169;DHT22;10742;51.816;8.662;2023-05-10T11:57:17;26.40;79.50
21169;DHT22;10742;51.816;8.662;2023-05-10T12:00:20;26.50;78.10
21169;DHT22;10742;51.816;8.662;2023-05-10T12:03:22;26.60;77.00
21169;DHT22;10742;51.816;8.662;2023-05-10T12:06:37;26.60;75.80
21169;DHT22;10742;51.816;8.662;2023-05-10T12:09:43;26.50;76.90
21169;DHT22;10742;51.816;8.662;2023-05-10T12:12:47;26.40;77.50
21169;DHT22;10742;51.816;8.662;2023-05-10T12:15:50;26.30;78.20
21169;DHT22;10742;51.816;8.662;2023-05-10T12:18:57;26.10;77.90
21169;DHT22;10742;51.816;8.662;2023-05-10T12:21:59;25.90;76.80
21169;DHT22;10742;51.816;8.662;2023-05-10T12:25:02;25.70;76.90
21169;DHT22;10742;51.816;8.662;2023-05-10T12:28:06;25.50;77.30
21169;DHT22;10742;51.816;8.662;2023-05-10T12:31:09;25.30;78.40
21169;DHT22;10742;51.816;8.662;2023-05-10T12:34:25;25.10;78.90
21169;DHT22;10742;51.816;8.662;2023-05-10T12:37:28;25.00;79.30
21169;DHT22;10742;51.816;8.662;2023-05-10T12:40:30;24.90;79.30
21169;DHT22;10742;51.816;8.662;2023-05-10T12:43:33;24.70;80.80
21169;DHT22;10742;51.816;8.662;2023-05-10T12:46:36;24.70;81.40
21169;DHT22;10742;51.816;8.662;2023-05-10T12:49:38;24.70;81.00
21169;DHT22;10742;51.816;8.662;2023-05-10T12:52:40;24.70;81.00
21169;DHT22;10742;51.816;8.662;2023-05-10T12:55:43;24.70;80.70
21169;DHT22;10742;51.816;8.662;2023-05-10T12:58:46;24.60;80.10
21169;DHT22;10742;51.816;8.662;2023-05-10T13:01:50;24.70;80.30
21169;DHT22;10742;51.816;8.662;2023-05-10T13:04:52;24.60;80.10
21169;DHT22;10742;51.816;8.662;2023-05-10T13:07:55;24.70;80.10
21169;DHT22;10742;51.816;8.662;2023-05-10T13:10:57;24.70;79.90
21169;DHT22;10742;51.816;8.662;2023-05-10T13:13:59;24.70;79.20
21169;DHT22;10742;51.816;8.662;2023-05-10T13:17:02;24.70;79.30
21169;DHT22;10742;51.816;8.662;2023-05-10T13:20:05;24.70;79.50
21169;DHT22;10742;51.816;8.662;2023-05-10T13:23:07;24.60;79.00
21169;DHT22;10742;51.816;8.662;2023-05-10T13:26:10;24.50;78.10
21169;DHT22;10742;51.816;8.662;2023-05-10T13:29:12;24.50;77.80
21169;DHT22;10742;51.816;8.662;2023-05-10T13:32:14;24.40;77.70
21169;DHT22;10742;51.816;8.662;2023-05-10T13:35:17;24.40;77.30
21169;DHT22;10742;51.816;8.662;2023-05-10T13:38:19;24.30;76.60
21169;DHT22;10742;51.816;8.662;2023-05-10T13:41:22;24.30;76.00
21169;DHT22;10742;51.816;8.662;2023-05-10T13:44:25;24.30;76.20
21169;DHT22;10742;51.816;8.662;2023-05-10T13:47:27;24.40;76.00
21169;DHT22;10742;51.816;8.662;2023-05-10T13:50:30;24.40;76.70
21169;DHT22;10742;51.816;8.662;2023-05-10T13:53:32;24.40;76.70
21169;DHT22;10742;51.816;8.662;2023-05-10T13:56:35;24.50;76.60
21169;DHT22;10742;51.816;8.662;2023-05-10T13:59:37;24.50;76.60
21169;DHT22;10742;51.816;8.662;2023-05-10T14:02:39;24.40;76.70
21169;DHT22;10742;51.816;8.662;2023-05-10T14:05:42;24.40;76.90
21169;DHT22;10742;51.816;8.662;2023-05-10T14:08:44;24.40;77.20
21169;DHT22;10742;51.816;8.662;2023-05-10T14:11:47;24.30;77.60
21169;DHT22;10742;51.816;8.662;2023-05-10T14:14:50;24.10;77.90
21169;DHT22;10742;51.816;8.662;2023-05-10T14:17:53;24.00;78.10
21169;DHT22;10742;51.816;8.662;2023-05-10T14:20:55;23.80;78.00
21169;DHT22;10742;51.816;8.662;2023-05-10T14:23:57;23.70;78.60
21169;DHT22;10742;51.816;8.662;2023-05-10T14:27:00;23.60;79.20
21169;DHT22;10742;51.816;8.662;2023-05-10T14:30:02;23.50;79.60
21169;DHT22;10742;51.816;8.662;2023-05-10T14:33:05;23.40;80.00
21169;DHT22;10742;51.816;8.662;2023-05-10T14:36:07;23.30;80.40
21169;DHT22;10742;51.816;8.662;2023-05-10T14:39:10;23.20;80.90
21169;DHT22;10742;51.816;8.662;2023-05-10T14:42:14;23.10;81.20
21169;DHT22;10742;51.816;8.662;2023-05-10T14:45:16;23.00;81.50
21169;DHT22;10742;51.816;8.662;2023-05-10T14:48:19;22.90;82.00
21169;DHT22;10742;51.816;8.662;2023-05-10T14:51:23;22.80;82.50
21169;DHT22;10742;51.816;8.662;2023-05-10T14:54:25;22.80;82.80
21169;DHT22;10742;51.816;8.662;2023-05-10T14:57:27;22.70;83.10
21169;DHT22;10742;51.816;8.662;2023-05-10T15:00:31;22.60;83.60
21169;DHT22;10742;51.816;8.662;2023-05-10T15:03:34;22.50;84.00
21169;DHT22;10742;51.816;8.662;2023-05-10T15:06:36;22.40;84.30
21169;DHT22;10742;51.816;8.662;2023-05-10T15:09:39;22.30;84.60
21169;DHT22;10742;51.816;8.662;2023-05-10T15:12:42;22.20;84.90
21169;DHT22;10742;51.816;8.662;2023-05-10T15:15:44;22.20;85.40
21169;DHT22;10742;51.816;8.662;2023-05-10T15:18:47;22.10;86.10
21169;DHT22;10742;51.816;8.662;2023-05-10T15:21:50;22.00;85.80
21169;DHT22;10742;51.816;8.662;2023-05-10T15:24:52;21.90;86.10
21169;DHT22;10742;51.816;8.662;2023-05-10T15:27:54;21.90;86.50
21169;DHT22;10742;51.816;8.662;2023-05-10T15:30:57;21.80;87.00
21169;DHT22;10742;51.816;8.662;2023-05-10T15:33:59;21.80;87.00
21169;DHT22;10742;51.816;8.662;2023-05-10T15:37:02;21.70;87.50
21169;DHT22;10742;51.816;8.662;2023-05-10T15:40:05;21.70;87.60
21169;DHT22;10742;51.816;8.662;2023-05-10T15:43:07;21.60;87.80
21169;DHT22;10742;51.816;8.662;2023-05-10T15:46:10;21.60;87.90
21169;DHT22;10742;51.816;8.662;2023-05-10T15:49:12;21.50;88.00
21169;DHT22;10742;51.816;8.662;2023-05-10T15:52:14;21.50;88.50
21169;DHT22;10742;51.816;8.662;2023-05-10T15:55:20;21.40;88.80
21169;DHT22;10742;51.816;8.662;2023-05-10T15:58:26;21.40;89.00
21169;DHT22;10742;51.816;8.662;2023-05-10T16:01:28;21.30;89.10
21169;DHT22;10742;51.816;8.662;2023-05-10T16:04:31;21.30;89.10
21169;DHT22;10742;51.816;8.662;2023-05-10T16:07:34;21.20;89.30
21169;DHT22;10742;51.816;8.662;2023-05-10T16:10:36;21.10;90.10
21169;DHT22;10742;51.816;8.662;2023-05-10T16:13:39;21.10;89.70
21169;DHT22;10742;51.816;8.662;2023-05-10T16:16:41;21.00;89.70
21169;DHT22;10742;51.816;8.662;2023-05-10T16:19:44;21.00;90.00
21169;DHT22;10742;51.816;8.662;2023-05-10T16:22:47;20.90;90.10
21169;DHT22;10742;51.816;8.662;2023-05-10T16:25:50;20.80;90.20
21169;DHT22;10742;51.816;8.662;2023-05-10T16:28:54;20.80;90.40
21169;DHT22;10742;51.816;8.662;2023-05-10T16:31:56;20.70;90.50
21169;DHT22;10742;51.816;8.662;2023-05-10T16:34:58;20.70;90.70
21169;DHT22;10742;51.816;8.662;2023-05-10T16:38:01;20.60;90.70
21169;DHT22;10742;51.816;8.662;2023-05-10T16:41:03;20.60;90.80
21169;DHT22;10742;51.816;8.662;2023-05-10T16:44:06;20.60;91.00
21169;DHT22;10742;51.816;8.662;2023-05-10T16:47:08;20.50;91.00
21169;DHT22;10742;51.816;8.662;2023-05-10T16:50:11;20.50;91.40
21169;DHT22;10742;51.816;8.662;2023-05-10T16:53:13;20.40;91.20
21169;DHT22;10742;51.816;8.662;2023-05-10T16:56:16;20.40;91.30
21169;DHT22;10742;51.816;8.662;2023-05-10T16:59:19;20.40;91.40
21169;DHT22;10742;51.816;8.662;2023-05-10T17:02:22;20.40;91.40
21169;DHT22;10742;51.816;8.662;2023-05-10T17:05:25;20.30;91.50
21169;DHT22;10742;51.816;8.662;2023-05-10T17:08:27;20.30;91.50
21169;DHT22;10742;51.816;8.662;2023-05-10T17:11:30;20.30;91.50
21169;DHT22;10742;51.816;8.662;2023-05-10T17:14:32;20.20;91.50
21169;DHT22;10742;51.816;8.662;2023-05-10T17:17:34;20.10;91.60
21169;DHT22;10742;51.816;8.662;2023-05-10T17:20:37;20.10;91.70
21169;DHT22;10742;51.816;8.662;2023-05-10T17:23:39;20.00;91.80
21169;DHT22;10742;51.816;8.662;2023-05-10T17:26:41;19.90;91.80
21169;DHT22;10742;51.816;8.662;2023-05-10T17:29:44;19.90;91.90
21169;DHT22;10742;51.816;8.662;2023-05-10T17:32:46;19.80;92.10
21169;DHT22;10742;51.816;8.662;2023-05-10T17:35:49;19.80;92.30
21169;DHT22;10742;51.816;8.662;2023-05-10T17:38:51;19.80;92.50
21169;DHT22;10742;51.816;8.662;2023-05-10T17:41:53;19.80;92.50
21169;DHT22;10742;51.816;8.662;2023-05-10T17:44:56;19.80;92.60
21169;DHT22;10742;51.816;8.662;2023-05-10T17:47:58;19.80;92.70
21169;DHT22;10742;51.816;8.662;2023-05-10T17:51:00;19.80;92.70
21169;DHT22;10742;51.816;8.662;2023-05-10T17:54:02;19.80;92.90
21169;DHT22;10742;51.816;8.662;2023-05-10T17:57:05;19.80;92.90
21169;DHT22;10742;51.816;8.662;2023-05-10T18:00:08;19.80;92.90
21169;DHT22;10742;51.816;8.662;2023-05-10T18:03:10;19.90;92.90
21169;DHT22;10742;51.816;8.662;2023-05-10T18:06:12;19.90;92.90
21169;DHT22;10742;51.816;8.662;2023-05-10T18:09:15;19.90;92.90
21169;DHT22;10742;51.816;8.662;2023-05-10T18:12:18;19.90;92.90
21169;DHT22;10742;51.816;8.662;2023-05-10T18:15:21;19.80;92.90
21169;DHT22;10742;51.816;8.662;2023-05-10T18:18:23;19.80;92.90
21169;DHT22;10742;51.816;8.662;2023-05-10T18:21:26;19.80;92.90
21169;DHT22;10742;51.816;8.662;2023-05-10T18:24:28;19.80;92.90
21169;DHT22;10742;51.816;8.662;2023-05-10T18:27:39;19.70;92.90
21169;DHT22;10742;51.816;8.662;2023-05-10T18:30:41;19.80;92.90
21169;DHT22;10742;51.816;8.662;2023-05-10T18:33:43;19.70;93.00
21169;DHT22;10742;51.816;8.662;2023-05-10T18:36:46;19.70;93.00
21169;DHT22;10742;51.816;8.662;2023-05-10T18:39:49;19.80;93.00
21169;DHT22;10742;51.816;8.662;2023-05-10T18:42:51;19.70;93.00
21169;DHT22;10742;51.816;8.662;2023-05-10T18:45:54;19.70;93.00
21169;DHT22;10742;51.816;8.662;2023-05-10T18:48:56;19.70;93.10
21169;DHT22;10742;51.816;8.662;2023-05-10T18:51:58;19.80;92.90
21169;DHT22;10742;51.816;8.662;2023-05-10T18:55:01;19.80;92.90
21169;DHT22;10742;51.816;8.662;2023-05-10T18:58:03;19.70;92.90
21169;DHT22;10742;51.816;8.662;2023-05-10T19:01:06;19.70;93.00
21169;DHT22;10742;51.816;8.662;2023-05-10T19:04:08;19.70;93.00
21169;DHT22;10742;51.816;8.662;2023-05-10T19:07:11;19.80;93.00
21169;DHT22;10742;51.816;8.662;2023-05-10T19:10:13;19.70;93.00
21169;DHT22;10742;51.816;8.662;2023-05-10T19:13:15;19.70;93.10
21169;DHT22;10742;51.816;8.662;2023-05-10T19:16:18;19.70;93.10
21169;DHT22;10742;51.816;8.662;2023-05-10T19:19:24;19.70;93.10
21169;DHT22;10742;51.816;8.662;2023-05-10T19:22:27;19.70;93.10
21169;DHT22;10742;51.816;8.662;2023-05-10T19:25:37;19.70;93.20
21169;DHT22;10742;51.816;8.662;2023-05-10T19:28:40;19.60;93.20
21169;DHT22;10742;51.816;8.662;2023-05-10T19:31:42;19.60;93.30
21169;DHT22;10742;51.816;8.662;2023-05-10T19:34:44;19.60;93.30